South Haven, MI (49090)

8:35 AM EDT on September 01, 2015 (GMT -0400)
South Haven | | Change Station
CLOSE
Current Station
Airport
Location: South Haven,
Elevation: 666 ft
Nearby Weather Stations

Elev 666 ft 42.35 °N, 86.26 °W | Updated 20 minutes ago

Scattered Clouds
Scattered Clouds
68 °F
Feels Like 68 °F
N
4
Wind Variable Wind from South

Today
High -- | Low -- °F
--% Chance of Precip.
Yesterday
High -- | Low -- °F
Precip. -- in
7:09 AM 8:19 PM
Waning Gibbous, 89% visible
Pressure 30.07 in
Visibility 2.5 miles
Clouds Scattered Clouds 5000 ft
Dew Point 67 °F
Humidity 96%
Rainfall 0.00 in
Snow Depth Not available.
UV 0 out of 12
Pollen 10.60 out of 12
Air Quality Not available.
Flu Activity Not available.
METAR KLWA 011215Z AUTO 18003KT 2 1/2SM BR SCT050 20/20 A3007 RMK AO2 T02030196
Pressure 30.07 in
Visibility 2.5 miles
Clouds Scattered Clouds 5000 ft
Dew Point 67 °F
Humidity 96%
Rainfall 0.00 in
Snow Depth Not available.
UV 0 out of 12
Pollen 10.60 out of 12
Air Quality Not available.
Flu Activity Not available.
METAR KLWA 011215Z AUTO 18003KT 2 1/2SM BR SCT050 20/20 A3007 RMK AO2 T02030196

10-Day Weather Forecast

×

Almanac

Astronomy

Sep. 01, 2015 Rise Set
Actual Time
Civil Twilight
Nautical Twilight
Astronomical Twilight
Moon
Length of Visible Light
Length of Day
Tomorrow will be .
, % of the Moon is Illuminated

Today's Extremes

State Highs State Lows

Community

WunderPhotos

Upload Photos

1,851,510 photos uploaded!

WunderBlogs® & News

Nearby

Air Quality

  Air Quality AQ Index Pollutant
Not available.

Snow Depth

Station Depth Elevation

Earthquake Activity

City Distance Mag. Time & Date
Minimum magnitude displayed is 2.5.

Coastal Water Temperatures

Place Temperature

Stations

Nearby Weather Stations

Station Location Temp. Windchill Dew Point Humidity Wind Precip. Elev Updated Type